Terminal Aerodrome Forecast
Issued by NWS

Home | Current Version | Previous Version | Text Only | Print | Product List | Glossary On
Versions: 1 2 3 4 5 6 7 8 9 10 11 12
000
FTUS44 KLIX 032320
TAFGPT
TAF
KGPT 032320Z 0400/0424 15008KT P6SM SKC
     FM040300 13005KT P6SM SKC
     FM041400 11010KT P6SM SCT025
     FM041600 13013KT P6SM SCT040=

USA.gov is the U.S. government's official web portal to all federal, state and local government web resources and services.